createdAt,value
2022-09-04T00:01:02.790Z,2.70
2022-09-04T00:03:39.954Z,2.37
2022-09-04T00:06:14.881Z,2.13
2022-09-04T00:08:53.356Z,1.73
2022-09-04T00:11:35.961Z,1.87
2022-09-04T00:14:08.471Z,2.10
2022-09-04T00:16:43.406Z,2.00
2022-09-04T00:19:17.450Z,2.30
2022-09-04T00:21:51.714Z,2.00
2022-09-04T00:24:22.886Z,1.93
2022-09-04T00:26:58.016Z,1.90
2022-09-04T00:29:36.344Z,1.90
2022-09-04T00:32:12.990Z,2.17
2022-09-04T00:34:56.018Z,1.90
2022-09-04T00:37:30.318Z,2.07
2022-09-04T00:40:02.499Z,1.93
2022-09-04T00:42:48.924Z,2.10
2022-09-04T00:45:29.688Z,2.10
2022-09-04T00:48:37.364Z,2.00
2022-09-04T00:51:21.216Z,1.83
2022-09-04T00:54:37.305Z,2.13
2022-09-04T00:57:44.461Z,1.83
2022-09-04T01:00:16.279Z,2.00
2022-09-04T01:03:06.378Z,2.10
2022-09-04T01:05:45.956Z,1.73
2022-09-04T01:08:23.661Z,2.33
2022-09-04T01:11:07.366Z,2.20
2022-09-04T01:13:42.168Z,2.30
2022-09-04T01:16:16.797Z,2.10
2022-09-04T01:18:53.146Z,2.40
2022-09-04T01:21:55.472Z,1.97
2022-09-04T01:24:37.356Z,2.30
2022-09-04T01:27:10.682Z,2.40
2022-09-04T01:29:49.951Z,2.07
2022-09-04T01:32:29.935Z,2.00
2022-09-04T01:35:06.967Z,2.00
2022-09-04T01:37:49.188Z,2.20
2022-09-04T01:40:35.489Z,1.93
2022-09-04T01:43:08.586Z,2.40
2022-09-04T01:45:49.349Z,2.00
2022-09-04T01:48:21.486Z,1.97
2022-09-04T01:50:54.640Z,2.13
2022-09-04T01:53:26.650Z,2.20
2022-09-04T01:56:04.123Z,2.10
2022-09-04T01:58:42.858Z,2.10
2022-09-04T02:01:21.048Z,1.77
2022-09-04T02:03:57.349Z,2.13
2022-09-04T02:06:33.058Z,2.13
2022-09-04T02:09:20.243Z,2.37
2022-09-04T02:11:53.556Z,1.77
2022-09-04T02:14:37.789Z,2.23
2022-09-04T02:17:12.480Z,1.97
2022-09-04T02:19:54.951Z,2.10
2022-09-04T02:22:30.119Z,2.20
2022-09-04T02:25:05.855Z,2.20
2022-09-04T02:27:46.488Z,1.77
2022-09-04T02:30:19.516Z,2.40
2022-09-04T02:32:54.683Z,1.90
2022-09-04T02:35:28.070Z,2.10
2022-09-04T02:38:08.806Z,2.20
2022-09-04T02:40:47.691Z,2.67
2022-09-04T02:43:39.687Z,2.27
2022-09-04T02:46:17.113Z,2.17
2022-09-04T02:48:57.574Z,2.27
2022-09-04T02:51:39.578Z,2.07
2022-09-04T02:54:15.618Z,2.20
2022-09-04T02:56:53.390Z,2.23
2022-09-04T02:59:33.068Z,2.13
2022-09-04T03:02:04.882Z,2.30
2022-09-04T03:04:40.355Z,2.20
2022-09-04T03:07:12.986Z,2.73
2022-09-04T03:09:45.691Z,2.13
2022-09-04T03:12:27.403Z,2.67
2022-09-04T03:15:03.808Z,2.10
2022-09-04T03:17:39.242Z,2.10
2022-09-04T03:20:10.830Z,2.20
2022-09-04T03:22:46.726Z,2.20
2022-09-04T03:25:36.246Z,2.30
2022-09-04T03:28:04.571Z,2.37
2022-09-04T03:30:37.194Z,2.37
2022-09-04T03:33:14.530Z,2.73
2022-09-04T03:35:49.928Z,2.40
2022-09-04T03:38:24.707Z,2.00
2022-09-04T03:41:00.546Z,2.23
2022-09-04T03:43:38.167Z,2.27
2022-09-04T03:46:18.664Z,2.40
2022-09-04T03:49:01.240Z,2.20
2022-09-04T03:51:38.717Z,2.50
2022-09-04T03:54:16.391Z,2.13
2022-09-04T03:57:03.448Z,2.23
2022-09-04T03:59:45.345Z,2.37
2022-09-04T04:02:23.361Z,2.47
2022-09-04T04:05:07.028Z,2.43
2022-09-04T04:07:47.925Z,2.40
2022-09-04T04:10:33.349Z,2.30
2022-09-04T04:13:16.424Z,2.37
2022-09-04T04:15:53.461Z,2.00
2022-09-04T04:19:10.820Z,2.20
2022-09-04T04:21:55.995Z,2.50
2022-09-04T04:24:39.985Z,2.80
2022-09-04T04:27:27.923Z,2.73
2022-09-04T04:30:08.410Z,2.47
2022-09-04T04:33:01.253Z,2.73
2022-09-04T04:35:35.902Z,2.20
2022-09-04T04:38:18.255Z,2.40
2022-09-04T04:41:07.489Z,2.50
2022-09-04T04:43:49.948Z,2.30
2022-09-04T04:46:23.447Z,2.97
2022-09-04T04:49:31.179Z,2.70
2022-09-04T04:52:18.417Z,2.70
2022-09-04T04:55:06.268Z,2.97
2022-09-04T04:57:45.697Z,2.90
2022-09-04T05:00:18.648Z,3.00
2022-09-04T05:03:00.793Z,2.47
2022-09-04T05:05:50.025Z,2.50
2022-09-04T05:08:27.891Z,2.80
2022-09-04T05:11:03.591Z,2.80
2022-09-04T05:13:40.526Z,2.93
2022-09-04T05:16:18.988Z,2.70
2022-09-04T05:18:56.357Z,2.60
2022-09-04T05:21:30.257Z,3.10
2022-09-04T05:24:03.736Z,2.80
2022-09-04T05:26:40.782Z,3.03
2022-09-04T05:29:17.209Z,2.33
2022-09-04T05:31:52.386Z,2.73
2022-09-04T05:34:29.138Z,2.60
2022-09-04T05:37:09.126Z,2.90
2022-09-04T05:39:49.356Z,2.87
2022-09-04T05:42:42.804Z,3.20
2022-09-04T05:45:19.242Z,3.13
2022-09-04T05:48:02.551Z,2.90
2022-09-04T05:50:46.482Z,3.07
2022-09-04T05:53:48.082Z,2.67
2022-09-04T05:56:36.154Z,2.50
2022-09-04T05:59:25.087Z,3.27
2022-09-04T06:02:16.632Z,2.90
2022-09-04T06:05:04.527Z,2.73
2022-09-04T06:07:41.043Z,3.13
2022-09-04T06:10:15.487Z,3.30
2022-09-04T06:13:07.523Z,3.60
2022-09-04T06:15:47.495Z,2.83
2022-09-04T06:18:39.348Z,3.07
2022-09-04T06:21:27.862Z,3.13
2022-09-04T06:24:08.498Z,2.80
2022-09-04T06:26:51.882Z,2.83
2022-09-04T06:29:42.884Z,2.47
2022-09-04T06:32:32.602Z,2.70
2022-09-04T06:35:11.155Z,3.20
2022-09-04T06:37:52.839Z,2.97
2022-09-04T06:40:38.393Z,3.30
2022-09-04T06:43:17.584Z,3.30
2022-09-04T06:46:01.985Z,3.13
2022-09-04T06:48:45.708Z,3.13
2022-09-04T06:51:23.983Z,3.30
2022-09-04T06:54:00.302Z,3.27
2022-09-04T06:56:42.575Z,3.60
2022-09-04T06:59:32.909Z,3.23
2022-09-04T07:02:14.061Z,3.23
2022-09-04T07:04:55.774Z,3.47
2022-09-04T07:07:32.620Z,3.50
2022-09-04T07:10:10.446Z,3.67
2022-09-04T07:13:23.462Z,3.50
2022-09-04T07:16:15.294Z,2.93
2022-09-04T07:18:59.406Z,3.40
2022-09-04T07:21:40.094Z,3.33
2022-09-04T07:24:14.884Z,3.60
2022-09-04T07:26:52.683Z,3.57
2022-09-04T07:29:30.249Z,3.57
2022-09-04T07:32:03.206Z,3.47
2022-09-04T07:34:41.352Z,3.93
2022-09-04T07:37:27.166Z,4.10
2022-09-04T07:40:03.590Z,3.93
2022-09-04T07:42:42.199Z,3.60
2022-09-04T07:45:22.571Z,3.80
2022-09-04T07:47:58.643Z,3.90
2022-09-04T07:50:32.170Z,4.07
2022-09-04T07:53:19.759Z,3.33
2022-09-04T07:55:48.871Z,3.97
2022-09-04T07:58:58.503Z,3.63
2022-09-04T08:01:49.322Z,4.17
2022-09-04T08:04:44.390Z,3.27
2022-09-04T08:07:20.846Z,4.47
2022-09-04T08:10:14.343Z,4.57
2022-09-04T08:12:56.986Z,3.73
2022-09-04T08:15:40.951Z,4.17
2022-09-04T08:18:26.931Z,3.80
2022-09-04T08:21:10.085Z,4.23
2022-09-04T08:23:59.261Z,4.20
2022-09-04T08:26:37.791Z,4.00
2022-09-04T08:29:24.050Z,3.80
2022-09-04T08:32:04.559Z,3.93
2022-09-04T08:35:09.029Z,3.63
2022-09-04T08:37:48.438Z,4.00
2022-09-04T08:40:45.156Z,3.80
2022-09-04T08:43:32.063Z,3.57
2022-09-04T08:46:40.197Z,3.80
2022-09-04T08:49:36.374Z,4.57
2022-09-04T08:52:25.430Z,3.63
2022-09-04T08:55:24.106Z,3.73
2022-09-04T08:58:20.662Z,3.53
2022-09-04T09:01:07.125Z,3.83
2022-09-04T09:03:58.182Z,3.83
2022-09-04T09:07:01.362Z,3.93
2022-09-04T09:10:06.839Z,3.47
2022-09-04T09:13:22.025Z,3.27
2022-09-04T09:16:22.508Z,3.83
2022-09-04T09:19:10.031Z,4.17
2022-09-04T09:21:45.899Z,3.30
2022-09-04T09:24:42.586Z,4.00
2022-09-04T09:27:34.788Z,3.63
2022-09-04T09:30:07.922Z,3.33
2022-09-04T09:33:05.130Z,4.20
2022-09-04T09:36:14.786Z,4.20
2022-09-04T09:39:14.345Z,3.67
2022-09-04T09:42:10.137Z,4.00
2022-09-04T09:44:57.788Z,3.30
2022-09-04T09:48:11.410Z,3.77
2022-09-04T09:51:24.487Z,4.05
2022-09-04T09:54:24.585Z,3.10
2022-09-04T09:57:35.021Z,3.50
2022-09-04T10:00:09.513Z,4.20
2022-09-04T10:03:05.957Z,3.60
2022-09-04T10:05:57.738Z,3.78
2022-09-04T10:08:47.660Z,3.60
2022-09-04T10:12:06.884Z,3.80
2022-09-04T10:15:11.017Z,3.60
2022-09-04T10:18:01.695Z,3.85
2022-09-04T10:21:20.785Z,3.83
2022-09-04T10:24:36.314Z,3.50
2022-09-04T10:27:43.707Z,3.63
2022-09-04T10:30:15.174Z,3.33
2022-09-04T10:33:12.759Z,3.72
2022-09-04T10:35:54.321Z,3.95
2022-09-04T10:38:37.446Z,2.65
2022-09-04T10:41:33.297Z,3.75
2022-09-04T10:44:41.422Z,3.65
2022-09-04T10:47:24.592Z,3.40
2022-09-04T10:50:22.921Z,3.20
2022-09-04T10:53:26.742Z,3.72
2022-09-04T10:56:06.981Z,3.70
2022-09-04T10:58:54.376Z,3.80
2022-09-04T11:01:55.322Z,3.70
2022-09-04T11:05:07.004Z,3.38
2022-09-04T11:08:06.891Z,3.67
2022-09-04T11:10:59.119Z,3.70
2022-09-04T11:13:51.920Z,3.28
2022-09-04T11:17:15.639Z,3.60
2022-09-04T11:20:22.612Z,3.08
2022-09-04T11:23:30.546Z,3.90
2022-09-04T11:26:28.199Z,3.85
2022-09-04T11:29:12.942Z,3.63
2022-09-04T11:32:03.976Z,3.53
2022-09-04T11:35:12.470Z,2.97
2022-09-04T11:38:05.087Z,3.30
2022-09-04T11:41:17.527Z,3.40
2022-09-04T11:44:04.550Z,3.25
2022-09-04T11:46:59.076Z,3.30
2022-09-04T11:49:52.427Z,3.35
2022-09-04T11:52:28.519Z,3.20
2022-09-04T11:55:25.029Z,3.33
2022-09-04T11:58:20.441Z,2.85
2022-09-04T12:00:59.485Z,3.20
2022-09-04T12:03:51.587Z,3.17
2022-09-04T12:06:35.070Z,3.78
2022-09-04T12:09:41.394Z,3.42
2022-09-04T12:12:26.336Z,2.85
2022-09-04T12:15:13.409Z,3.13
2022-09-04T12:18:16.350Z,3.10
2022-09-04T12:21:21.130Z,2.92
2022-09-04T12:24:11.388Z,2.60
2022-09-04T12:27:09.932Z,2.70
2022-09-04T12:29:56.905Z,2.90
2022-09-04T12:32:55.161Z,3.30
2022-09-04T12:36:11.026Z,3.15
2022-09-04T12:39:19.303Z,3.38
2022-09-04T12:41:54.455Z,3.10
2022-09-04T12:44:36.360Z,2.55
2022-09-04T12:47:16.434Z,2.83
2022-09-04T12:50:00.142Z,2.65
2022-09-04T12:52:41.851Z,3.38
2022-09-04T12:55:19.241Z,2.65
2022-09-04T12:57:58.287Z,2.85
2022-09-04T13:00:46.049Z,2.97
2022-09-04T13:03:29.494Z,3.40
2022-09-04T13:06:07.797Z,3.33
2022-09-04T13:08:43.916Z,2.80
2022-09-04T13:11:24.010Z,2.88
2022-09-04T13:14:15.077Z,3.00
2022-09-04T13:16:54.853Z,2.95
2022-09-04T13:19:30.272Z,3.08
2022-09-04T13:22:11.459Z,2.88
2022-09-04T13:24:52.035Z,2.95
2022-09-04T13:27:35.840Z,3.05
2022-09-04T13:30:09.436Z,3.00
2022-09-04T13:33:01.023Z,2.65
2022-09-04T13:35:47.330Z,3.03
2022-09-04T13:38:52.277Z,3.15
2022-09-04T13:41:43.928Z,2.83
2022-09-04T13:44:38.288Z,3.25
2022-09-04T13:47:08.993Z,3.40
2022-09-04T13:49:44.212Z,2.63
2022-09-04T13:52:16.908Z,2.60
2022-09-04T13:54:47.936Z,2.42
2022-09-04T13:57:21.038Z,2.70
2022-09-04T13:59:54.983Z,2.85
2022-09-04T14:02:26.949Z,2.53
2022-09-04T14:05:01.370Z,2.22
2022-09-04T14:07:33.926Z,2.40
2022-09-04T14:10:05.232Z,2.58
2022-09-04T14:12:51.811Z,2.60
2022-09-04T14:15:46.770Z,2.42
2022-09-04T14:18:27.434Z,1.98
2022-09-04T14:21:01.522Z,2.53
2022-09-04T14:23:43.328Z,2.35
2022-09-04T14:26:19.686Z,2.90
2022-09-04T14:28:56.799Z,2.63
2022-09-04T14:31:35.174Z,2.72
2022-09-04T14:34:17.451Z,2.85
2022-09-04T14:36:56.523Z,2.13
2022-09-04T14:39:29.089Z,2.10
2022-09-04T14:42:16.188Z,2.50
2022-09-04T14:45:02.546Z,2.70
2022-09-04T14:47:42.473Z,2.00
2022-09-04T14:50:13.476Z,2.38
2022-09-04T14:52:44.318Z,2.45
2022-09-04T14:55:17.342Z,2.72
2022-09-04T14:57:51.496Z,2.30
2022-09-04T15:00:20.854Z,2.80
2022-09-04T15:02:57.994Z,2.78
2022-09-04T15:05:31.542Z,2.58
2022-09-04T15:08:02.454Z,2.70
2022-09-04T15:10:37.144Z,2.90
2022-09-04T15:13:44.041Z,2.20
2022-09-04T15:16:19.496Z,2.75
2022-09-04T15:18:57.268Z,2.70
2022-09-04T15:21:32.520Z,4.10
2022-09-04T15:24:09.095Z,2.85
2022-09-04T15:26:44.523Z,2.50
2022-09-04T15:29:19.749Z,2.70
2022-09-04T15:31:47.882Z,2.50
2022-09-04T15:34:25.601Z,2.40
2022-09-04T15:36:54.479Z,2.40
2022-09-04T15:39:30.987Z,3.38
2022-09-04T15:42:00.004Z,3.58
2022-09-04T15:44:34.750Z,3.33
2022-09-04T15:47:07.267Z,4.55
2022-09-04T15:49:49.873Z,3.80
2022-09-04T15:52:26.926Z,3.67
2022-09-04T15:55:03.782Z,3.03
2022-09-04T15:57:44.682Z,2.90
2022-09-04T16:00:17.312Z,2.45
2022-09-04T16:02:54.588Z,3.00
2022-09-04T16:05:36.053Z,2.42
2022-09-04T16:08:21.031Z,2.70
2022-09-04T16:10:59.903Z,4.15
2022-09-04T16:13:41.681Z,9.32
2022-09-04T16:16:13.844Z,3.13
2022-09-04T16:18:50.286Z,2.72
2022-09-04T16:21:30.340Z,3.00
2022-09-04T16:24:09.019Z,2.47
2022-09-04T16:26:39.057Z,2.28
2022-09-04T16:29:15.416Z,2.78
2022-09-04T16:31:53.220Z,2.60
2022-09-04T16:34:24.492Z,2.72
2022-09-04T16:37:01.907Z,2.80
2022-09-04T16:39:36.345Z,2.75
2022-09-04T16:42:17.003Z,2.70
2022-09-04T16:44:48.933Z,2.17
2022-09-04T16:47:24.419Z,2.90
2022-09-04T16:50:00.329Z,2.63
2022-09-04T16:53:12.453Z,2.55
2022-09-04T16:55:47.931Z,2.72
2022-09-04T16:58:39.855Z,2.63
2022-09-04T17:01:15.781Z,2.50
2022-09-04T17:04:20.576Z,2.67
2022-09-04T17:06:57.439Z,2.70
2022-09-04T17:09:32.066Z,2.40
2022-09-04T17:12:16.226Z,2.47
2022-09-04T17:14:51.729Z,2.38
2022-09-04T17:17:32.014Z,2.85
2022-09-04T17:20:11.345Z,2.90
2022-09-04T17:28:57.198Z,2.72
2022-09-04T17:29:03.495Z,2.72
2022-09-04T17:29:17.148Z,3.17
2022-09-04T17:31:48.235Z,2.55
2022-09-04T17:40:37.625Z,2.80
2022-09-04T17:40:51.299Z,3.03
2022-09-04T17:40:54.114Z,2.50
2022-09-04T17:43:22.297Z,3.47
2022-09-04T17:46:01.190Z,3.08
2022-09-04T17:48:32.740Z,2.85
2022-09-04T17:51:02.869Z,2.85
2022-09-04T17:53:35.043Z,2.75
2022-09-04T17:56:10.834Z,3.00
2022-09-04T17:58:49.575Z,2.72
2022-09-04T18:01:21.954Z,3.25
2022-09-04T18:04:20.578Z,3.10
2022-09-04T18:06:56.250Z,3.10
2022-09-04T18:09:30.166Z,3.38
2022-09-04T18:12:11.056Z,3.00
2022-09-04T18:14:53.129Z,3.20
2022-09-04T18:17:40.783Z,3.08
2022-09-04T18:20:18.531Z,3.08
2022-09-04T18:23:22.686Z,3.17
2022-09-04T18:25:56.797Z,2.95
2022-09-04T18:28:29.843Z,2.85
2022-09-04T18:37:15.638Z,2.95
2022-09-04T18:37:23.392Z,3.33
2022-09-04T18:37:26.725Z,2.60
2022-09-04T18:39:52.650Z,2.95
2022-09-04T18:48:49.224Z,3.25
2022-09-04T18:50:28.924Z,3.35
2022-09-04T18:50:34.960Z,3.03
2022-09-04T18:51:21.246Z,3.05
2022-09-04T18:53:53.563Z,2.92
2022-09-04T18:56:26.424Z,3.35
2022-09-04T18:59:15.894Z,2.97
2022-09-04T19:01:47.117Z,2.72
2022-09-04T19:04:49.747Z,3.20
2022-09-04T19:07:29.981Z,2.90
2022-09-04T19:10:20.884Z,3.22
2022-09-04T19:12:58.534Z,3.30
2022-09-04T19:15:36.892Z,2.92
2022-09-04T19:18:14.064Z,3.05
2022-09-04T19:20:48.229Z,3.17
2022-09-04T19:23:24.618Z,2.75
2022-09-04T19:25:54.913Z,3.47
2022-09-04T19:28:28.300Z,2.97
2022-09-04T19:30:59.596Z,3.30
2022-09-04T19:33:39.023Z,3.00
2022-09-04T19:36:14.105Z,3.00
2022-09-04T19:45:57.805Z,3.17
2022-09-04T19:46:00.253Z,3.07
2022-09-04T19:46:15.613Z,3.17
2022-09-04T19:47:41.034Z,2.92
2022-09-04T19:53:19.979Z,3.67
2022-09-04T19:53:30.585Z,3.37
2022-09-04T19:56:08.889Z,3.30
2022-09-04T19:58:40.123Z,3.10
2022-09-04T20:01:16.890Z,3.30
2022-09-04T20:03:49.715Z,3.40
2022-09-04T20:06:25.485Z,3.13
2022-09-04T20:09:03.067Z,3.30
2022-09-04T20:11:36.446Z,3.23
2022-09-04T20:14:14.794Z,3.13
2022-09-04T20:16:58.645Z,2.90
2022-09-04T20:19:31.346Z,2.93
2022-09-04T20:22:03.602Z,3.03
2022-09-04T20:24:40.686Z,3.20
2022-09-04T20:27:15.598Z,2.90
2022-09-04T20:29:54.682Z,2.70
2022-09-04T20:32:27.596Z,2.80
2022-09-04T20:35:13.142Z,2.90
2022-09-04T20:37:48.644Z,2.80
2022-09-04T20:40:28.629Z,3.10
2022-09-04T20:43:11.777Z,2.80
2022-09-04T20:51:22.708Z,2.70
2022-09-04T20:52:54.190Z,2.43
2022-09-04T20:52:59.848Z,2.60
2022-09-04T20:54:32.651Z,2.70
2022-09-04T21:01:44.431Z,2.77
2022-09-04T21:03:10.466Z,2.50
2022-09-04T21:03:24.846Z,2.50
2022-09-04T21:06:00.004Z,2.40
2022-09-04T21:08:43.342Z,2.33
2022-09-04T21:11:39.403Z,2.30
2022-09-04T21:14:09.570Z,2.47
2022-09-04T21:16:51.463Z,2.10
2022-09-04T21:19:50.420Z,2.60
2022-09-04T21:22:34.407Z,2.33
2022-09-04T21:25:19.976Z,2.93
2022-09-04T21:28:29.480Z,2.70
2022-09-04T21:31:13.522Z,2.37
2022-09-04T21:33:48.350Z,2.20
2022-09-04T21:36:26.357Z,2.77
2022-09-04T21:39:33.121Z,2.70
2022-09-04T21:42:48.169Z,2.40
2022-09-04T21:45:32.053Z,2.23
2022-09-04T21:48:23.830Z,2.50
2022-09-04T21:50:58.808Z,2.10
2022-09-04T21:53:56.275Z,2.67
2022-09-04T22:02:22.980Z,2.20
2022-09-04T22:02:46.082Z,2.20
2022-09-04T22:03:25.792Z,2.30
2022-09-04T22:06:06.025Z,2.83
2022-09-04T22:13:30.542Z,2.10
2022-09-04T22:13:42.732Z,2.30
2022-09-04T22:14:41.755Z,2.60
2022-09-04T22:17:38.039Z,2.10
2022-09-04T22:20:28.029Z,2.30
2022-09-04T22:23:37.555Z,2.27
2022-09-04T22:26:28.873Z,2.53
2022-09-04T22:29:14.823Z,2.23
2022-09-04T22:32:28.688Z,1.67
2022-09-04T22:35:35.754Z,2.00
2022-09-04T22:38:34.153Z,2.63
2022-09-04T22:41:24.983Z,2.10
2022-09-04T22:44:03.561Z,1.90
2022-09-04T22:46:45.840Z,2.20
2022-09-04T22:49:37.240Z,2.00
2022-09-04T22:52:35.474Z,2.10
2022-09-04T22:55:36.514Z,2.07
2022-09-04T22:58:23.941Z,2.03
2022-09-04T23:01:08.272Z,2.37
2022-09-04T23:03:47.517Z,1.90
2022-09-04T23:09:06.091Z,2.23
2022-09-04T23:13:43.882Z,2.00
2022-09-04T23:13:58.562Z,2.10
2022-09-04T23:16:36.418Z,2.40
2022-09-04T23:25:47.636Z,2.33
2022-09-04T23:26:36.631Z,2.13
2022-09-04T23:26:46.044Z,2.23
2022-09-04T23:28:56.746Z,2.40
2022-09-04T23:32:06.905Z,2.13
2022-09-04T23:34:57.740Z,2.17
2022-09-04T23:38:19.324Z,2.13
2022-09-04T23:40:53.496Z,2.47
2022-09-04T23:43:57.817Z,1.93
2022-09-04T23:46:42.496Z,2.30
2022-09-04T23:49:41.322Z,1.97
2022-09-04T23:52:18.612Z,2.30
2022-09-04T23:55:05.535Z,2.10
2022-09-04T23:57:45.823Z,2.50
